Time;durP1;ratioP1;P1;durP2;ratioP2;P2;SDS_P1;SDS_P2;PMS_P1;PMS_P2;Temp;Humidity;BMP_temperature;BMP_pressure;BME280_temperature;BME280_humidity;BME280_pressure;Samples;Min_cycle;Max_cycle;Signal;HPM_P1;HPM_P2
2022/07/11 00:00:56;;;;;;;3.10;1.90;;;;;;;19.65;48.26;99398.19;7009286;28;20210;-82
2022/07/11 00:04:18;;;;;;;2.70;1.73;;;;;;;19.82;48.75;99426.38;7009130;28;20223;-81
2022/07/11 00:07:39;;;;;;;3.07;1.70;;;;;;;19.87;47.58;99405.38;7008262;28;20201;-81
2022/07/11 00:11:01;;;;;;;3.43;2.00;;;;;;;19.64;49.09;99430.16;7008374;28;20305;-82
2022/07/11 00:14:25;;;;;;;2.57;1.93;;;;;;;19.87;48.41;99427.28;7008434;28;20222;-81
2022/07/11 00:17:46;;;;;;;2.07;1.87;;;;;;;20.02;47.91;99424.78;7010093;28;20299;-82
2022/07/11 00:21:09;;;;;;;3.07;1.80;;;;;;;19.94;48.37;99416.16;7008536;28;20211;-82
2022/07/11 00:24:30;;;;;;;4.03;1.90;;;;;;;20.16;47.81;99417.09;7007523;28;20706;-81
2022/07/11 00:27:52;;;;;;;2.47;1.83;;;;;;;20.04;47.81;99422.63;7006991;28;20744;-80
2022/07/11 00:31:15;;;;;;;3.30;1.90;;;;;;;20.02;47.58;99424.78;7008817;28;20690;-81
2022/07/11 00:34:36;;;;;;;2.80;2.10;;;;;;;20.05;47.71;99407.84;7008171;28;20616;-81
2022/07/11 00:37:58;;;;;;;2.20;2.00;;;;;;;19.52;49.57;99404.00;7026037;28;20209;-83
2022/07/11 00:41:20;;;;;;;2.67;1.87;;;;;;;19.26;50.11;99399.97;7014020;28;20197;-81
2022/07/11 00:44:41;;;;;;;2.70;2.00;;;;;;;19.26;50.70;99410.06;7008571;28;20218;-82
2022/07/11 00:48:04;;;;;;;2.57;2.07;;;;;;;19.30;50.40;99411.25;7009208;28;20662;-81
2022/07/11 00:51:26;;;;;;;4.03;1.90;;;;;;;19.70;49.22;99404.56;7008367;28;20190;-81
2022/07/11 00:54:48;;;;;;;3.40;2.17;;;;;;;19.37;49.47;99390.88;7007960;28;20234;-81
2022/07/11 00:58:10;;;;;;;2.13;1.93;;;;;;;19.61;49.25;99394.28;7008134;28;20326;-81
2022/07/11 01:01:33;;;;;;;2.87;1.90;;;;;;;19.15;50.45;99394.53;7007306;28;20205;-81
2022/07/11 01:04:56;;;;;;;2.03;1.83;;;;;;;19.43;49.66;99369.91;7007948;28;20308;-81
2022/07/11 01:08:18;;;;;;;2.77;1.90;;;;;;;19.56;49.68;99388.72;7007115;28;20206;-82
2022/07/11 01:11:40;;;;;;;2.10;1.90;;;;;;;19.72;49.10;99388.72;7008452;28;20248;-81
2022/07/11 01:15:03;;;;;;;2.77;2.00;;;;;;;19.39;49.70;99380.50;7009346;28;20223;-81
2022/07/11 01:18:25;;;;;;;1.90;1.80;;;;;;;19.33;49.78;99372.50;7006411;28;20232;-81
2022/07/11 01:21:50;;;;;;;3.03;2.23;;;;;;;19.33;50.64;99381.50;7005553;28;20190;-81
2022/07/11 01:25:29;;;;;;;3.97;2.00;;;;;;;18.95;51.66;99397.72;7007960;28;20222;-80
2022/07/11 01:28:51;;;;;;;3.53;2.23;;;;;;;19.04;51.50;99401.72;7009162;28;20223;-81
2022/07/11 01:32:13;;;;;;;2.10;1.90;;;;;;;18.95;51.31;99358.63;7008749;28;20255;-81
2022/07/11 01:35:34;;;;;;;2.27;1.87;;;;;;;19.41;50.28;99380.28;7006626;28;20221;-81
2022/07/11 01:38:56;;;;;;;3.37;2.10;;;;;;;19.23;50.93;99394.19;7005966;28;20752;-81
2022/07/11 01:42:19;;;;;;;4.03;2.60;;;;;;;18.63;52.53;99373.88;7019654;28;20682;-80
2022/07/11 01:45:40;;;;;;;2.10;1.97;;;;;;;18.47;52.79;99370.00;7036158;28;20233;-80
2022/07/11 01:49:02;;;;;;;4.17;2.20;;;;;;;18.42;53.35;99391.75;7035249;28;20233;-82
2022/07/11 01:52:23;;;;;;;3.47;2.30;;;;;;;18.39;54.31;99392.19;7035822;28;20208;-81
2022/07/11 01:55:45;;;;;;;4.63;2.27;;;;;;;18.38;54.11;99370.59;7042168;28;20221;-82
2022/07/11 01:59:08;;;;;;;3.40;2.03;;;;;;;19.01;52.05;99358.50;7037428;28;20302;-81
2022/07/11 02:02:30;;;;;;;2.93;2.20;;;;;;;19.37;50.97;99398.25;7034493;28;20197;-81
2022/07/11 02:05:51;;;;;;;2.13;2.03;;;;;;;19.61;49.74;99369.66;7044746;28;20205;-82
2022/07/11 02:09:13;;;;;;;3.87;2.30;;;;;;;19.76;49.41;99386.31;7057762;28;20220;-82
2022/07/11 02:12:35;;;;;;;3.57;2.00;;;;;;;18.83;51.93;99393.38;7049202;28;20213;-82
2022/07/11 02:15:57;;;;;;;2.30;2.10;;;;;;;18.73;53.37;99384.97;7032666;28;20334;-81
2022/07/11 02:19:19;;;;;;;2.93;2.50;;;;;;;19.12;52.15;99384.94;7031392;28;20626;-81
2022/07/11 02:22:40;;;;;;;3.00;1.97;;;;;;;18.81;51.19;99319.84;7030604;28;20194;-81
2022/07/11 02:26:02;;;;;;;5.50;2.37;;;;;;;19.29;51.37;99387.72;7031444;28;20554;-81
2022/07/11 02:29:24;;;;;;;2.60;2.40;;;;;;;19.10;52.04;99389.00;7030662;28;20210;-81
2022/07/11 02:32:46;;;;;;;2.70;2.27;;;;;;;19.42;51.05;99385.50;7031780;28;20251;-81
2022/07/11 02:36:09;;;;;;;2.07;1.93;;;;;;;19.79;49.85;99378.44;7043489;28;20216;-84
2022/07/11 02:39:31;;;;;;;2.57;2.00;;;;;;;19.53;50.22;99370.94;7045420;28;20220;-81
2022/07/11 02:42:52;;;;;;;3.40;2.03;;;;;;;19.56;50.59;99386.81;7032457;28;20361;-81
2022/07/11 02:46:14;;;;;;;3.30;2.10;;;;;;;19.35;50.54;99352.00;7031975;28;20346;-81
2022/07/11 02:49:37;;;;;;;2.40;1.93;;;;;;;19.57;50.30;99377.53;7031851;28;20843;-82
2022/07/11 02:52:59;;;;;;;4.73;2.80;;;;;;;19.74;50.04;99381.09;7030785;28;20236;-82
2022/07/11 02:56:20;;;;;;;2.10;1.90;;;;;;;19.90;49.51;99373.94;7030965;28;20284;-81
2022/07/11 02:59:42;;;;;;;2.10;1.80;;;;;;;19.93;49.43;99376.19;7029878;28;20359;-82
2022/07/11 03:03:04;;;;;;;6.57;2.10;;;;;;;20.10;48.70;99372.34;7030158;28;20232;-82
2022/07/11 03:06:26;;;;;;;4.17;2.30;;;;;;;19.76;49.29;99358.97;7030730;28;20205;-81
2022/07/11 03:09:48;;;;;;;2.70;2.37;;;;;;;19.95;49.30;99382.22;7031055;28;20224;-81
2022/07/11 03:13:09;;;;;;;2.93;2.17;;;;;;;19.92;49.04;99382.75;7031749;28;20253;-82
2022/07/11 03:16:31;;;;;;;2.40;2.10;;;;;;;19.97;49.04;99380.06;7032205;28;20239;-82
2022/07/11 03:19:53;;;;;;;2.30;2.00;;;;;;;19.76;49.75;99383.59;7030867;28;20226;-82
2022/07/11 03:23:19;;;;;;;2.27;2.07;;;;;;;19.99;49.11;99388.88;7032441;28;20221;-82
2022/07/11 03:26:40;;;;;;;2.17;1.97;;;;;;;20.08;49.68;99384.66;7037608;28;20200;-82
2022/07/11 03:30:03;;;;;;;3.83;2.63;;;;;;;20.15;48.96;99374.34;7037646;28;20208;-81
2022/07/11 03:33:24;;;;;;;2.50;2.00;;;;;;;20.27;48.55;99380.56;7037912;28;20228;-82
2022/07/11 03:36:47;;;;;;;2.67;2.00;;;;;;;20.25;48.52;99375.31;7037509;28;20569;-82
2022/07/11 03:40:11;;;;;;;1.90;1.70;;;;;;;20.07;49.53;99380.25;7037596;28;20229;-82
2022/07/11 03:43:32;;;;;;;3.20;2.10;;;;;;;20.08;49.26;99382.75;7032761;28;20234;-81
2022/07/11 03:46:54;;;;;;;2.57;2.17;;;;;;;20.18;49.13;99388.38;7036460;28;20298;-82
2022/07/11 03:50:16;;;;;;;2.33;2.10;;;;;;;20.12;49.10;99391.28;7036354;28;20263;-81
2022/07/11 03:53:37;;;;;;;2.13;1.90;;;;;;;20.20;48.90;99388.94;7036275;28;20248;-82
2022/07/11 03:57:00;;;;;;;2.70;2.03;;;;;;;20.27;48.88;99373.16;7036363;28;20205;-82
2022/07/11 04:00:22;;;;;;;4.07;2.20;;;;;;;20.19;48.54;99345.38;7036310;28;20248;-81
2022/07/11 04:03:43;;;;;;;3.30;2.40;;;;;;;19.98;50.05;99374.34;7016499;28;20223;-82
2022/07/11 04:07:06;;;;;;;4.10;2.50;;;;;;;20.32;49.11;99380.59;7031328;28;20206;-82
2022/07/11 04:10:27;;;;;;;2.00;1.90;;;;;;;20.37;49.38;99383.41;7035469;28;20260;-82
2022/07/11 04:13:50;;;;;;;2.37;2.00;;;;;;;20.44;48.72;99384.03;7035095;28;20225;-82
2022/07/11 04:17:12;;;;;;;5.73;2.47;;;;;;;20.23;49.46;99374.72;7036350;28;20197;-82
2022/07/11 04:20:33;;;;;;;2.67;1.90;;;;;;;20.45;48.91;99382.97;7023747;28;20308;-81
2022/07/11 04:23:55;;;;;;;4.50;2.20;;;;;;;20.40;48.42;99363.75;7007048;28;20234;-82
2022/07/11 04:27:17;;;;;;;2.63;1.90;;;;;;;20.55;48.14;99388.56;7019361;28;20345;-82
2022/07/11 04:30:40;;;;;;;2.00;1.90;;;;;;;20.55;48.65;99383.09;7035311;28;20757;-81
2022/07/11 04:34:01;;;;;;;5.33;2.30;;;;;;;20.46;49.06;99366.28;7037522;28;20217;-81
2022/07/11 04:37:23;;;;;;;5.60;2.40;;;;;;;20.21;49.98;99384.28;7020645;28;20212;-82
2022/07/11 04:40:44;;;;;;;3.83;2.17;;;;;;;20.55;49.19;99378.44;7022486;28;20256;-80
2022/07/11 04:44:07;;;;;;;2.03;1.80;;;;;;;20.78;48.74;99387.22;7035052;28;20271;-80
2022/07/11 04:47:30;;;;;;;5.10;2.03;;;;;;;20.79;49.17;99374.34;7010270;28;20723;-80
2022/07/11 04:50:51;;;;;;;2.37;2.10;;;;;;;20.99;47.90;99362.81;7019195;28;20216;-81
2022/07/11 04:54:13;;;;;;;5.23;2.50;;;;;;;21.01;47.68;99379.84;7021682;28;20309;-81
2022/07/11 04:57:34;;;;;;;2.40;2.20;;;;;;;21.02;47.87;99376.84;7007216;28;20238;-80
2022/07/11 05:00:56;;;;;;;4.87;2.60;;;;;;;21.14;47.38;99369.28;7015817;28;20224;-81
2022/07/11 05:04:19;;;;;;;4.07;1.80;;;;;;;20.86;47.70;99350.31;7016356;28;20991;-80
2022/07/11 05:07:40;;;;;;;2.03;1.80;;;;;;;20.75;48.46;99367.72;7034106;28;20685;-81
2022/07/11 05:11:02;;;;;;;3.37;2.27;;;;;;;20.56;48.90;99340.91;7035569;28;20204;-80
2022/07/11 05:14:24;;;;;;;3.70;2.93;;;;;;;20.61;49.03;99343.72;7022782;28;20219;-80
2022/07/11 05:17:45;;;;;;;4.40;2.20;;;;;;;20.83;49.03;99376.31;7027660;28;20198;-80
2022/07/11 05:21:08;;;;;;;3.20;2.00;;;;;;;20.39;50.16;99387.56;7033075;28;20380;-80
2022/07/11 05:24:30;;;;;;;2.87;2.00;;;;;;;19.90;51.33;99396.69;7028196;28;20242;-79
2022/07/11 05:27:52;;;;;;;2.57;2.37;;;;;;;20.29;50.55;99395.63;7012696;28;20307;-80
2022/07/11 05:31:14;;;;;;;2.40;2.13;;;;;;;21.11;48.45;99388.97;7022253;28;20684;-79
2022/07/11 05:34:35;;;;;;;3.63;2.30;;;;;;;21.27;47.87;99392.72;7010867;28;20221;-80
2022/07/11 05:37:58;;;;;;;3.53;1.87;;;;;;;21.87;46.49;99372.97;7008610;28;20229;-80
2022/07/11 05:41:20;;;;;;;3.10;2.20;;;;;;;22.05;46.01;99377.19;7005896;28;20221;-81
2022/07/11 05:44:41;;;;;;;2.67;2.20;;;;;;;22.00;46.36;99391.72;7005155;28;20312;-81
2022/07/11 05:48:03;;;;;;;4.60;2.20;;;;;;;21.79;46.62;99397.34;7003812;28;20205;-80
2022/07/11 05:51:25;;;;;;;3.07;2.20;;;;;;;22.20;45.92;99399.28;7005538;28;20586;-80
2022/07/11 05:54:48;;;;;;;2.77;2.57;;;;;;;22.39;45.23;99401.31;7005711;28;20254;-80
2022/07/11 05:58:09;;;;;;;4.13;3.07;;;;;;;22.54;44.78;99387.66;7029262;28;20208;-80
2022/07/11 06:01:32;;;;;;;2.67;2.47;;;;;;;22.51;45.31;99401.13;7032648;28;20711;-81
2022/07/11 06:04:53;;;;;;;2.73;2.20;;;;;;;22.94;43.79;99398.81;7032713;28;20231;-78
2022/07/11 06:11:56;;;;;;;3.63;2.37;;;;;;;22.98;44.86;99396.34;7003623;28;20899;-78
2022/07/11 06:15:18;;;;;;;3.73;2.70;;;;;;;23.04;44.49;99403.53;7025104;28;20226;-79
2022/07/11 06:18:40;;;;;;;2.90;2.70;;;;;;;23.17;43.55;99383.78;7004882;28;20198;-79
2022/07/11 06:22:01;;;;;;;4.57;2.60;;;;;;;22.98;44.92;99399.94;7003181;28;20240;-79
2022/07/11 06:25:23;;;;;;;4.73;2.73;;;;;;;22.65;44.69;99385.81;7004354;28;20229;-80
2022/07/11 06:28:47;;;;;;;4.20;3.23;;;;;;;22.37;45.61;99381.50;7008363;28;20210;-79
2022/07/11 06:32:08;;;;;;;3.27;2.83;;;;;;;22.53;45.63;99380.50;7003885;28;20251;-80
2022/07/11 06:35:30;;;;;;;3.10;2.70;;;;;;;22.89;45.60;99407.06;7007806;28;20241;-79
2022/07/11 06:38:51;;;;;;;6.10;3.10;;;;;;;23.08;45.46;99401.88;7009630;28;20296;-79
2022/07/11 06:42:13;;;;;;;4.60;2.80;;;;;;;22.53;45.96;99385.19;7003476;28;20222;-79
2022/07/11 06:45:37;;;;;;;2.90;2.70;;;;;;;22.67;45.68;99389.09;7003264;28;20236;-79
2022/07/11 06:48:58;;;;;;;4.30;2.67;;;;;;;23.58;43.67;99386.31;7016277;28;20202;-79
2022/07/11 06:52:20;;;;;;;2.87;2.57;;;;;;;23.81;43.13;99374.75;7031390;28;20645;-80
2022/07/11 06:55:41;;;;;;;3.07;2.77;;;;;;;23.89;43.46;99396.25;7007847;28;20214;-79
2022/07/11 06:59:03;;;;;;;2.90;2.70;;;;;;;23.90;43.35;99397.06;7021461;28;20204;-79
2022/07/11 07:02:29;;;;;;;3.63;2.93;;;;;;;23.82;42.63;99387.41;7035035;28;20213;-79
2022/07/11 07:05:55;;;;;;;3.37;2.70;;;;;;;24.30;41.82;99381.28;7015004;28;20194;-79
2022/07/11 07:09:16;;;;;;;3.60;2.50;;;;;;;24.61;41.12;99401.38;7017969;28;20290;-79
2022/07/11 07:12:39;;;;;;;3.10;2.30;;;;;;;24.72;41.15;99390.00;7036771;28;20208;-79
2022/07/11 07:16:00;;;;;;;2.70;2.50;;;;;;;24.14;41.95;99385.19;7029875;28;20548;-79
2022/07/11 07:19:26;;;;;;;3.30;2.60;;;;;;;23.88;43.44;99364.28;7007657;28;20217;-79
2022/07/11 07:22:47;;;;;;;5.17;3.13;;;;;;;24.33;42.42;99397.28;7018177;28;20204;-78
2022/07/11 07:26:09;;;;;;;2.90;2.53;;;;;;;24.88;41.45;99390.75;7029298;28;20208;-78
2022/07/11 07:29:32;;;;;;;2.57;2.40;;;;;;;24.94;40.25;99371.13;7006358;28;20209;-79
2022/07/11 07:32:53;;;;;;;3.03;2.77;;;;;;;25.69;39.05;99387.22;7032207;28;20289;-79
2022/07/11 07:36:16;;;;;;;2.60;2.40;;;;;;;25.45;40.19;99389.06;7008846;28;20288;-78
2022/07/11 07:39:38;;;;;;;2.97;2.53;;;;;;;24.12;41.87;99356.28;7020299;28;20220;-80
2022/07/11 07:43:01;;;;;;;2.20;2.10;;;;;;;25.91;39.19;99382.09;7010043;28;20670;-78
2022/07/11 07:46:22;;;;;;;2.27;2.07;;;;;;;26.43;37.55;99376.53;7029585;28;20322;-80
2022/07/11 07:49:44;;;;;;;3.10;1.83;;;;;;;26.05;38.31;99387.75;7021055;28;20204;-79
2022/07/11 07:53:08;;;;;;;2.40;2.20;;;;;;;25.10;39.60;99378.22;7035377;28;20232;-78
2022/07/11 07:56:30;;;;;;;2.83;2.20;;;;;;;24.81;41.55;99396.59;7035555;28;20268;-79
2022/07/11 08:01:34;;;;;;;2.27;2.07;;;;;;;25.02;40.48;99350.41;7033143;28;20220;-78
2022/07/11 08:03:33;;;;;;;2.20;2.00;;;;;;;26.91;37.70;99372.69;7028451;28;20242;-79
2022/07/11 08:06:54;;;;;;;1.80;1.70;;;;;;;27.20;36.93;99361.50;7008304;28;20701;-80
2022/07/11 08:10:17;;;;;;;1.50;1.40;;;;;;;28.05;35.46;99352.63;7029757;28;20212;-80
2022/07/11 08:13:39;;;;;;;2.80;1.80;;;;;;;27.85;35.08;99369.59;7026937;28;20235;-80
2022/07/11 08:17:01;;;;;;;2.93;1.70;;;;;;;28.09;34.71;99361.13;7008197;28;20239;-80
2022/07/11 08:20:22;;;;;;;1.93;1.67;;;;;;;27.03;36.47;99361.16;7021860;28;20259;-80
2022/07/11 08:23:44;;;;;;;1.50;1.40;;;;;;;27.28;35.04;99345.03;7017536;28;20222;-80
2022/07/11 08:27:07;;;;;;;2.00;1.50;;;;;;;26.85;36.12;99381.34;7017615;28;20202;-79
2022/07/11 08:30:28;;;;;;;4.17;1.30;;;;;;;27.36;35.10;99372.03;7022583;28;20289;-80
2022/07/11 08:33:50;;;;;;;1.70;1.30;;;;;;;27.80;33.47;99350.31;7011952;28;20305;-80
2022/07/11 08:37:12;;;;;;;2.63;2.00;;;;;;;25.27;38.10;99337.28;7019391;28;20210;-79
2022/07/11 08:40:34;;;;;;;1.83;1.73;;;;;;;25.24;38.91;99368.22;7021589;28;20220;-79
2022/07/11 08:43:57;;;;;;;1.67;1.23;;;;;;;25.95;37.15;99363.78;7012868;28;20225;-80
2022/07/11 08:47:19;;;;;;;5.37;1.50;;;;;;;26.99;35.56;99366.47;7015853;28;20290;-80
2022/07/11 08:50:40;;;;;;;1.73;1.53;;;;;;;27.28;34.93;99353.34;7016552;28;20217;-79
2022/07/11 08:54:02;;;;;;;1.73;1.63;;;;;;;26.96;36.15;99350.44;7011687;28;20241;-80
2022/07/11 08:57:24;;;;;;;2.13;1.73;;;;;;;26.70;36.16;99334.47;7034459;28;20197;-80
2022/07/11 09:00:47;;;;;;;2.03;1.93;;;;;;;27.41;34.84;99344.28;7033945;28;20241;-80
2022/07/11 09:04:08;;;;;;;2.90;2.07;;;;;;;26.15;37.05;99338.72;7030809;28;20240;-80
2022/07/11 09:07:30;;;;;;;2.60;2.20;;;;;;;27.17;35.69;99340.78;7007075;28;20215;-80
2022/07/11 09:10:52;;;;;;;2.57;1.90;;;;;;;27.00;36.91;99320.22;7007386;28;20204;-82
2022/07/11 09:14:22;;;;;;;2.17;1.93;;;;;;;28.37;34.08;99355.34;7011417;28;20218;-81
2022/07/11 09:17:45;;;;;;;2.70;1.80;;;;;;;29.37;32.07;99327.34;7034299;28;20213;-81
2022/07/11 09:28:38;;;;;;;2.10;1.90;;;;;;;26.46;35.55;99351.09;7036569;28;20193;-80
2022/07/11 09:32:00;;;;;;;1.90;1.77;;;;;;;26.18;35.69;99316.00;7024877;28;20565;-80
2022/07/11 09:35:23;;;;;;;2.60;1.87;;;;;;;27.26;35.32;99338.94;7026177;28;20220;-80
2022/07/11 09:38:57;;;;;;;2.27;2.10;;;;;;;27.51;34.27;99346.03;7033947;28;20216;-80
2022/07/11 09:42:18;;;;;;;1.90;1.40;;;;;;;28.41;33.17;99330.56;7033801;28;20238;-80
2022/07/11 09:45:41;;;;;;;2.57;1.80;;;;;;;27.06;34.51;99333.69;7037286;28;20238;-80
2022/07/11 09:49:02;;;;;;;1.70;1.60;;;;;;;28.09;33.49;99341.72;7033736;28;20575;-80
2022/07/11 09:52:25;;;;;;;2.37;1.30;;;;;;;27.66;35.16;99338.31;7034082;28;20208;-80
2022/07/11 09:55:47;;;;;;;2.40;1.50;;;;;;;27.87;32.65;99358.22;7034010;28;20255;-82
2022/07/11 09:59:10;;;;;;;2.57;1.57;;;;;;;28.49;31.36;99325.13;7032760;28;20235;-83
2022/07/11 10:02:33;;;;;;;1.70;1.60;;;;;;;27.82;33.29;99338.88;7023760;28;20671;-80
2022/07/11 10:05:55;;;;;;;1.70;1.50;;;;;;;27.44;33.69;99340.91;7007471;28;20199;-80
2022/07/11 10:09:18;;;;;;;1.80;1.47;;;;;;;28.60;32.96;99348.78;7005512;28;20271;-79
2022/07/11 10:12:40;;;;;;;5.67;3.23;;;;;;;28.57;32.88;99335.53;7005214;28;20308;-79
2022/07/11 10:16:07;;;;;;;3.17;2.53;;;;;;;29.12;31.60;99350.16;7005392;28;20203;-82
2022/07/11 10:19:38;;;;;;;30.63;23.57;;;;;;;29.10;31.57;99333.00;7005697;28;20261;-81
2022/07/11 10:23:08;;;;;;;33.63;30.27;;;;;;;29.00;32.24;99345.16;7008480;28;20604;-81
2022/07/11 10:26:36;;;;;;;16.33;14.37;;;;;;;28.96;32.48;99346.09;7008704;28;20206;-80
2022/07/11 10:29:58;;;;;;;2.27;2.07;;;;;;;29.24;31.06;99358.78;7021162;28;20189;-81
2022/07/11 10:33:19;;;;;;;4.07;2.20;;;;;;;29.21;30.66;99349.13;7041755;28;20740;-80
2022/07/11 10:36:42;;;;;;;3.00;1.93;;;;;;;28.70;31.08;99333.84;7034090;28;20206;-79
2022/07/11 10:40:05;;;;;;;2.17;1.90;;;;;;;27.50;32.58;99359.09;7032441;28;20260;-79
2022/07/11 10:43:38;;;;;;;1.47;1.37;;;;;;;27.84;32.31;99334.69;7033382;28;20266;-79
2022/07/11 10:46:59;;;;;;;3.77;3.20;;;;;;;27.69;32.61;99336.88;7033634;28;20208;-79
2022/07/11 10:50:30;;;;;;;2.80;1.90;;;;;;;28.76;31.16;99347.31;7008719;28;20214;-80
2022/07/11 10:53:53;;;;;;;1.67;1.57;;;;;;;29.32;29.99;99319.16;7006280;28;20312;-79
2022/07/11 10:57:18;;;;;;;2.03;1.67;;;;;;;29.47;30.28;99325.16;7033746;28;20209;-81
2022/07/11 11:00:41;;;;;;;1.60;1.50;;;;;;;29.73;29.52;99328.16;7031998;28;20605;-80
2022/07/11 11:04:40;;;;;;;1.20;1.20;;;;;;;29.59;29.95;99325.44;7031335;28;20235;-82
2022/07/11 11:08:01;;;;;;;3.10;1.90;;;;;;;29.80;30.89;99321.00;7005409;28;20209;-81
2022/07/11 11:11:38;;;;;;;3.00;2.10;;;;;;;29.72;29.84;99334.84;7005892;28;20208;-81
2022/07/11 11:15:32;;;;;;;2.00;1.70;;;;;;;29.50;30.17;99337.59;7006267;28;20595;-80
2022/07/11 11:18:55;;;;;;;1.97;1.73;;;;;;;29.93;30.73;99334.00;7004207;28;20299;-80
2022/07/11 11:22:18;;;;;;;2.37;1.70;;;;;;;28.70;32.18;99325.53;7007848;28;20220;-84
2022/07/11 11:25:39;;;;;;;1.67;1.57;;;;;;;29.34;31.97;99328.81;7008593;28;20249;-80
2022/07/11 11:29:02;;;;;;;2.43;1.67;;;;;;;29.27;31.72;99319.25;7009965;28;20207;-81
2022/07/11 11:32:31;;;;;;;1.70;1.60;;;;;;;29.59;30.92;99335.72;7004537;28;20204;-81
2022/07/11 11:36:01;;;;;;;1.63;1.53;;;;;;;29.72;30.15;99326.50;7004509;28;20570;-81
2022/07/11 11:39:27;;;;;;;1.90;1.70;;;;;;;30.15;30.00;99294.22;7027955;28;20199;-79
2022/07/11 11:42:48;;;;;;;1.80;1.60;;;;;;;30.21;30.34;99298.50;7031045;28;20223;-80
2022/07/11 11:46:13;;;;;;;1.67;1.57;;;;;;;30.03;30.35;99300.38;7050957;28;20222;-80
2022/07/11 11:49:44;;;;;;;2.07;1.77;;;;;;;30.12;30.70;99314.31;7019795;28;20200;-79
2022/07/11 11:53:07;;;;;;;2.57;1.60;;;;;;;30.76;29.48;99297.72;7039957;28;20228;-83
2022/07/11 11:56:30;;;;;;;1.90;1.67;;;;;;;31.72;28.25;99312.22;7029705;28;20692;-80
2022/07/11 11:59:52;;;;;;;1.50;1.40;;;;;;;31.56;27.39;99303.53;7037622;28;20665;-80
2022/07/11 12:03:14;;;;;;;1.67;1.53;;;;;;;31.37;27.46;99316.97;7029521;28;20867;-81
2022/07/11 12:06:37;;;;;;;1.60;1.30;;;;;;;30.64;28.73;99293.88;7010390;28;20217;-81
2022/07/11 12:10:03;;;;;;;1.53;1.43;;;;;;;30.71;28.68;99314.56;7010786;28;20205;-81
2022/07/11 12:13:24;;;;;;;1.63;1.53;;;;;;;29.68;29.69;99284.63;7011611;28;20657;-80
2022/07/11 12:16:48;;;;;;;2.67;1.60;;;;;;;30.46;29.97;99312.50;7011564;28;20205;-80
2022/07/11 12:20:10;;;;;;;2.13;1.83;;;;;;;28.83;31.29;99319.97;7010808;28;20205;-81
2022/07/11 12:23:32;;;;;;;1.70;1.50;;;;;;;28.69;31.76;99301.69;7010411;28;20235;-81
2022/07/11 12:26:55;;;;;;;1.80;1.70;;;;;;;29.52;30.63;99263.06;7010078;28;20207;-81
2022/07/11 12:30:23;;;;;;;2.10;1.70;;;;;;;28.94;31.96;99312.22;7026030;28;20216;-81
2022/07/11 12:33:51;;;;;;;2.37;1.90;;;;;;;29.61;31.16;99298.13;7027611;28;20262;-80
2022/07/11 12:37:16;;;;;;;1.70;1.60;;;;;;;28.70;32.47;99311.66;7038727;28;20204;-80
2022/07/11 12:40:38;;;;;;;1.93;1.60;;;;;;;29.97;30.47;99300.81;7037736;28;20216;-81
2022/07/11 12:47:41;;;;;;;1.83;1.73;;;;;;;29.73;30.32;99290.03;7008797;28;20212;-81
2022/07/11 12:51:03;;;;;;;1.90;1.80;;;;;;;29.18;30.88;99276.72;7012362;28;20212;-81
2022/07/11 12:54:30;;;;;;;2.20;1.80;;;;;;;29.29;31.15;99295.59;7008084;28;20314;-81
2022/07/11 12:58:02;;;;;;;1.67;1.57;;;;;;;29.55;31.39;99302.19;7025822;28;20691;-81
2022/07/11 13:01:25;;;;;;;3.83;1.90;;;;;;;28.65;32.00;99275.69;7035435;28;20229;-81
2022/07/11 13:04:48;;;;;;;2.87;2.00;;;;;;;28.56;33.43;99296.97;7036845;28;20228;-80
2022/07/11 13:11:49;;;;;;;2.07;1.97;;;;;;;29.20;31.47;99296.66;7010132;28;20212;-81
2022/07/11 13:15:12;;;;;;;1.90;1.70;;;;;;;29.06;31.98;99288.38;7010363;28;20249;-81
2022/07/11 13:18:35;;;;;;;2.20;2.10;;;;;;;28.74;32.67;99288.53;7018075;28;20242;-81
2022/07/11 13:21:57;;;;;;;2.83;2.00;;;;;;;28.38;32.59;99300.69;7042921;28;20309;-81
2022/07/11 13:25:20;;;;;;;3.43;2.10;;;;;;;28.57;33.29;99281.97;7047314;28;20248;-80
2022/07/11 13:28:41;;;;;;;2.47;2.10;;;;;;;29.18;32.60;99290.59;7040181;28;20226;-82
2022/07/11 13:32:03;;;;;;;2.53;2.20;;;;;;;29.08;32.30;99297.19;7033002;28;20198;-81
2022/07/11 13:35:26;;;;;;;4.17;2.00;;;;;;;28.78;32.61;99281.19;7034973;28;20226;-81
2022/07/11 13:38:48;;;;;;;2.53;2.00;;;;;;;28.66;33.42;99291.22;7034668;28;20199;-81
2022/07/11 13:42:10;;;;;;;2.30;2.10;;;;;;;28.01;33.96;99298.88;7036130;28;20322;-81
2022/07/11 13:45:31;;;;;;;2.20;2.00;;;;;;;28.82;32.64;99295.28;7054560;28;20241;-81
2022/07/11 13:48:53;;;;;;;2.27;2.07;;;;;;;28.51;33.43;99253.53;7034838;28;20209;-81
2022/07/11 13:52:16;;;;;;;3.63;2.10;;;;;;;28.36;33.87;99306.50;7033337;28;20208;-81
2022/07/11 13:55:37;;;;;;;2.50;2.30;;;;;;;28.02;34.60;99296.94;7036068;28;20776;-81
2022/07/11 13:59:00;;;;;;;2.20;2.00;;;;;;;29.06;33.43;99291.16;7035879;28;20214;-81
2022/07/11 14:02:22;;;;;;;2.83;2.00;;;;;;;28.65;33.15;99286.78;7035594;28;20252;-82
2022/07/11 14:05:43;;;;;;;2.83;2.50;;;;;;;27.37;35.60;99300.84;7034747;28;20233;-82
2022/07/11 14:09:06;;;;;;;4.50;2.30;;;;;;;28.49;34.16;99291.84;7033437;28;20205;-81
2022/07/11 14:12:28;;;;;;;3.40;2.13;;;;;;;29.20;32.30;99266.91;7034864;28;20620;-82
2022/07/11 14:15:50;;;;;;;6.00;2.43;;;;;;;29.22;32.17;99286.03;7033835;28;20233;-81
2022/07/11 14:19:12;;;;;;;3.93;2.13;;;;;;;29.09;32.58;99284.13;7034758;28;20600;-81
2022/07/11 14:22:33;;;;;;;3.43;2.43;;;;;;;28.87;32.96;99276.56;7034744;28;20226;-81
2022/07/11 14:25:56;;;;;;;4.80;2.27;;;;;;;29.08;33.34;99291.63;7033607;28;20231;-81
2022/07/11 14:29:18;;;;;;;3.67;2.17;;;;;;;29.33;32.26;99206.88;7054246;28;20190;-81
2022/07/11 14:32:40;;;;;;;3.87;2.20;;;;;;;29.24;32.10;99264.34;7037090;28;20208;-81
2022/07/11 14:36:01;;;;;;;2.40;2.10;;;;;;;29.16;32.60;99273.41;7035264;28;20204;-80
2022/07/11 14:39:26;;;;;;;2.13;2.00;;;;;;;28.95;32.28;99250.03;7034163;28;20214;-80
2022/07/11 14:42:49;;;;;;;2.00;1.90;;;;;;;29.30;32.40;99263.09;7035037;28;20594;-80
2022/07/11 14:46:10;;;;;;;3.63;2.20;;;;;;;29.65;31.17;99251.06;7035046;28;20222;-81
2022/07/11 14:49:32;;;;;;;2.40;2.20;;;;;;;29.06;32.26;99268.94;7033523;28;20204;-80
2022/07/11 14:52:54;;;;;;;2.27;2.07;;;;;;;28.88;32.79;99278.22;7034161;28;20306;-81
2022/07/11 14:56:15;;;;;;;2.67;2.13;;;;;;;30.21;30.74;99273.47;7033537;28;20213;-81
2022/07/11 14:59:38;;;;;;;2.40;2.10;;;;;;;30.13;30.54;99266.72;7032182;28;20206;-81
2022/07/11 15:13:58;;;;;;;2.30;2.10;;;;;;;30.14;30.86;99246.09;7030460;28;20215;-81
2022/07/11 15:17:21;;;;;;;3.80;2.17;;;;;;;30.03;31.26;99280.91;7030809;28;20680;-81
2022/07/11 15:20:43;;;;;;;2.10;1.90;;;;;;;28.11;34.15;99282.06;7034289;28;20202;-79
2022/07/11 15:24:05;;;;;;;2.40;2.20;;;;;;;28.30;34.16;99282.78;7037689;28;20229;-81
2022/07/11 15:27:27;;;;;;;2.43;2.23;;;;;;;29.24;32.32;99240.16;7038796;28;20658;-81
2022/07/11 15:30:49;;;;;;;2.77;2.40;;;;;;;28.73;33.34;99274.97;7038488;28;20204;-81
2022/07/11 15:34:12;;;;;;;3.13;2.20;;;;;;;29.63;32.95;99267.25;7030650;28;20229;-82
2022/07/11 15:37:33;;;;;;;2.80;1.90;;;;;;;29.94;31.64;99270.84;7010076;28;20215;-85
2022/07/11 15:40:55;;;;;;;2.40;2.20;;;;;;;30.18;31.46;99271.31;7010009;28;20212;-80
2022/07/11 15:44:17;;;;;;;4.53;2.10;;;;;;;28.94;32.85;99265.84;7010478;28;20253;-80
2022/07/11 15:47:38;;;;;;;4.77;2.17;;;;;;;29.51;32.33;99281.69;7015257;28;20672;-80
2022/07/11 15:51:01;;;;;;;2.57;2.37;;;;;;;28.73;33.55;99278.53;7022572;28;20220;-78
2022/07/11 15:54:23;;;;;;;2.40;2.20;;;;;;;29.45;30.87;99263.50;7009638;28;20243;-80
2022/07/11 15:57:45;;;;;;;2.10;2.00;;;;;;;28.99;32.74;99251.88;7027913;28;20241;-81
2022/07/11 16:01:06;;;;;;;2.90;2.10;;;;;;;29.25;31.99;99266.78;7037458;28;20216;-80
2022/07/11 16:04:28;;;;;;;2.43;1.90;;;;;;;28.87;32.92;99248.81;7036736;28;20229;-81
2022/07/11 16:07:51;;;;;;;2.77;2.20;;;;;;;29.01;32.81;99271.00;7037422;28;20213;-80
2022/07/11 16:11:12;;;;;;;2.33;2.13;;;;;;;29.71;31.96;99258.97;7038401;28;20209;-80
2022/07/11 16:14:34;;;;;;;2.17;2.07;;;;;;;29.17;32.17;99258.38;7036302;28;20303;-80
2022/07/11 16:17:56;;;;;;;3.33;2.30;;;;;;;28.75;33.07;99273.50;7036764;28;20304;-79
2022/07/11 16:21:17;;;;;;;2.47;2.27;;;;;;;28.65;33.37;99273.72;7021418;28;20278;-85
2022/07/11 16:24:40;;;;;;;2.13;2.03;;;;;;;28.53;32.72;99262.34;7036130;28;20224;-80